createdAt,value
2023-03-24T00:00:40.832Z,45.42
2023-03-24T00:03:32.069Z,44.15
2023-03-24T00:06:16.824Z,39.80
2023-03-24T00:09:05.888Z,41.50
2023-03-24T00:11:48.093Z,37.42
2023-03-24T00:14:38.889Z,36.97
2023-03-24T00:17:26.398Z,38.45
2023-03-24T00:20:21.818Z,36.90
2023-03-24T00:23:11.892Z,37.45
2023-03-24T00:26:06.529Z,34.67
2023-03-24T00:28:57.851Z,34.60
2023-03-24T00:31:47.823Z,30.85
2023-03-24T00:34:30.210Z,31.10
2023-03-24T00:37:19.004Z,30.00
2023-03-24T00:40:01.241Z,27.33
2023-03-24T00:42:55.908Z,40.28
2023-03-24T00:45:46.891Z,42.97
2023-03-24T00:48:36.802Z,42.35
2023-03-24T00:51:20.237Z,38.78
2023-03-24T00:54:09.818Z,41.97
2023-03-24T00:57:03.820Z,42.95
2023-03-24T00:59:49.592Z,43.35
2023-03-24T01:02:41.918Z,43.95
2023-03-24T01:05:37.479Z,41.42
2023-03-24T01:08:20.832Z,42.50
2023-03-24T01:11:03.080Z,41.55
2023-03-24T01:13:51.814Z,42.72
2023-03-24T01:16:40.774Z,39.92
2023-03-24T01:19:29.804Z,39.65
2023-03-24T01:22:18.868Z,40.85
2023-03-24T01:25:01.915Z,39.63
2023-03-24T01:27:51.808Z,43.30
2023-03-24T01:30:36.171Z,41.95
2023-03-24T01:33:25.805Z,43.45
2023-03-24T01:36:09.165Z,43.25
2023-03-24T01:38:57.808Z,44.90
2023-03-24T01:41:53.821Z,43.65
2023-03-24T01:44:47.197Z,42.08
2023-03-24T01:47:29.879Z,42.33
2023-03-24T01:50:18.940Z,39.42
2023-03-24T01:53:01.813Z,38.75
2023-03-24T01:56:07.777Z,37.38
2023-03-24T01:59:04.804Z,35.17
2023-03-24T02:01:53.378Z,35.92
2023-03-24T02:05:01.810Z,30.73
2023-03-24T02:08:00.873Z,30.73
2023-03-24T02:10:44.536Z,30.15
2023-03-24T02:13:33.815Z,29.30
2023-03-24T02:16:52.807Z,28.55
2023-03-24T02:19:59.580Z,28.73
2023-03-24T02:23:21.803Z,29.10
2023-03-24T02:26:59.875Z,28.67
2023-03-24T02:30:05.554Z,27.48
2023-03-24T02:33:22.829Z,27.70
2023-03-24T02:36:44.671Z,26.33
2023-03-24T02:39:45.775Z,26.08
2023-03-24T02:43:06.878Z,25.90
2023-03-24T02:46:08.247Z,26.15
2023-03-24T02:49:14.857Z,24.85
2023-03-24T02:52:32.076Z,22.40
2023-03-24T02:55:37.028Z,21.75
2023-03-24T02:58:40.086Z,22.05
2023-03-24T03:01:40.905Z,20.70
2023-03-24T03:04:47.222Z,21.33
2023-03-24T03:07:45.801Z,21.50
2023-03-24T03:10:41.811Z,21.60
2023-03-24T03:13:45.090Z,20.77
2023-03-24T03:16:54.602Z,22.40
2023-03-24T03:20:02.827Z,21.88
2023-03-24T03:23:04.683Z,22.77
2023-03-24T03:25:58.814Z,23.40
2023-03-24T03:28:57.892Z,21.40
2023-03-24T03:31:52.057Z,20.20
2023-03-24T03:34:53.832Z,21.63
2023-03-24T03:38:01.718Z,21.85
2023-03-24T03:40:59.770Z,20.65
2023-03-24T03:43:45.101Z,21.48
2023-03-24T03:46:34.878Z,22.50
2023-03-24T03:49:21.392Z,22.35
2023-03-24T03:52:09.830Z,23.40
2023-03-24T03:54:53.619Z,23.77
2023-03-24T04:00:51.834Z,22.08
2023-03-24T04:04:00.863Z,22.45
2023-03-24T04:07:38.803Z,22.58
2023-03-24T04:11:12.177Z,21.13
2023-03-24T04:14:36.801Z,21.00
2023-03-24T04:18:16.006Z,21.85
2023-03-24T04:21:46.248Z,20.40
2023-03-24T04:24:50.863Z,21.52
2023-03-24T04:27:47.801Z,20.05
2023-03-24T04:30:48.720Z,18.27
2023-03-24T04:33:57.869Z,16.65
2023-03-24T04:37:02.627Z,17.25
2023-03-24T04:40:06.849Z,16.13
2023-03-24T04:42:57.042Z,12.57
2023-03-24T04:45:46.098Z,11.52
2023-03-24T04:48:52.817Z,11.18
2023-03-24T04:51:39.262Z,11.57
2023-03-24T04:54:37.783Z,11.10
2023-03-24T04:57:19.889Z,10.45
2023-03-24T05:00:16.809Z,10.02
2023-03-24T05:02:59.327Z,9.27
2023-03-24T05:05:48.746Z,10.75
2023-03-24T05:08:32.069Z,9.60
2023-03-24T05:11:20.789Z,9.82
2023-03-24T05:14:12.556Z,10.18
2023-03-24T05:17:01.782Z,9.75
2023-03-24T05:19:51.606Z,8.63
2023-03-24T05:22:33.839Z,9.05
2023-03-24T05:25:24.780Z,10.20
2023-03-24T05:28:07.148Z,9.88
2023-03-24T05:30:55.850Z,9.27
2023-03-24T05:33:54.074Z,8.90
2023-03-24T05:36:45.796Z,8.50
2023-03-24T05:39:36.056Z,8.32
2023-03-24T05:42:37.844Z,7.57
2023-03-24T05:45:21.997Z,7.32
2023-03-24T05:48:11.751Z,8.15
2023-03-24T05:51:21.666Z,5.00
2023-03-24T05:54:20.939Z,4.85
2023-03-24T05:57:16.519Z,4.88
2023-03-24T06:00:25.773Z,5.22
2023-03-24T06:03:18.414Z,3.47
2023-03-24T06:06:22.888Z,3.90
2023-03-24T06:09:13.313Z,3.97
2023-03-24T06:11:55.785Z,3.30
2023-03-24T06:14:52.856Z,3.90
2023-03-24T06:17:43.752Z,3.33
2023-03-24T06:20:35.778Z,3.90
2023-03-24T06:23:29.856Z,3.67
2023-03-24T06:26:26.809Z,3.97
2023-03-24T06:29:13.664Z,2.63
2023-03-24T06:32:03.844Z,3.20
2023-03-24T06:34:55.533Z,3.80
2023-03-24T06:37:57.817Z,3.80
2023-03-24T06:40:46.109Z,2.80
2023-03-24T06:43:28.798Z,2.72
2023-03-24T06:46:19.183Z,3.53
2023-03-24T06:49:02.109Z,2.90
2023-03-24T06:51:51.852Z,2.60
2023-03-24T06:54:37.197Z,2.25
2023-03-24T06:57:25.820Z,2.87
2023-03-24T07:00:27.033Z,2.40
2023-03-24T07:03:30.972Z,1.83
2023-03-24T07:06:26.251Z,1.92
2023-03-24T07:09:23.801Z,2.20
2023-03-24T07:12:14.824Z,1.90
2023-03-24T07:15:05.630Z,2.00
2023-03-24T07:17:50.811Z,1.67
2023-03-24T07:20:56.162Z,1.73
2023-03-24T07:23:44.821Z,1.85
2023-03-24T07:26:37.442Z,2.22
2023-03-24T07:29:33.809Z,1.52
2023-03-24T07:32:25.819Z,2.17
2023-03-24T07:35:14.788Z,2.30
2023-03-24T07:38:14.675Z,1.80
2023-03-24T07:41:07.766Z,1.73
2023-03-24T07:43:56.029Z,2.15
2023-03-24T07:46:52.256Z,2.03
2023-03-24T07:49:34.130Z,2.00
2023-03-24T07:52:25.931Z,1.90
2023-03-24T07:55:09.794Z,1.70
2023-03-24T07:58:10.810Z,1.98
2023-03-24T08:01:08.339Z,4.13
2023-03-24T08:04:03.992Z,2.83
2023-03-24T08:07:09.470Z,3.60
2023-03-24T08:09:58.773Z,3.80
2023-03-24T08:12:47.784Z,4.43
2023-03-24T08:15:31.015Z,4.10
2023-03-24T08:18:19.781Z,4.47
2023-03-24T08:21:09.772Z,3.70
2023-03-24T08:23:52.086Z,4.50
2023-03-24T08:26:42.911Z,5.70
2023-03-24T08:29:25.097Z,3.70
2023-03-24T08:32:13.791Z,3.97
2023-03-24T08:34:56.138Z,4.57
2023-03-24T08:37:54.816Z,3.97
2023-03-24T08:40:39.752Z,4.43
2023-03-24T08:43:30.733Z,4.28
2023-03-24T08:46:19.901Z,4.43
2023-03-24T08:49:02.134Z,4.30
2023-03-24T08:51:51.124Z,4.03
2023-03-24T08:54:34.039Z,4.40
2023-03-24T08:57:22.818Z,4.72
2023-03-24T09:00:17.693Z,5.30
2023-03-24T09:03:08.874Z,4.40
2023-03-24T09:05:51.095Z,4.88
2023-03-24T09:08:39.715Z,4.15
2023-03-24T09:11:25.546Z,4.38
2023-03-24T09:14:14.804Z,5.45
2023-03-24T09:16:57.263Z,4.43
2023-03-24T09:19:45.765Z,4.45
2023-03-24T09:22:28.116Z,4.57
2023-03-24T09:25:18.828Z,4.15
2023-03-24T09:28:01.932Z,4.93
2023-03-24T09:30:50.972Z,5.07
2023-03-24T09:33:39.797Z,4.88
2023-03-24T09:36:30.066Z,5.63
2023-03-24T09:39:20.131Z,5.90
2023-03-24T09:42:03.711Z,10.15
2023-03-24T09:44:55.725Z,7.63
2023-03-24T09:47:44.051Z,7.40
2023-03-24T09:50:46.771Z,7.53
2023-03-24T09:54:00.344Z,7.20
2023-03-24T09:56:52.198Z,7.22
2023-03-24T09:59:54.020Z,8.10
2023-03-24T10:02:42.888Z,7.15
2023-03-24T10:05:37.773Z,8.55
2023-03-24T10:08:33.387Z,9.57
2023-03-24T10:11:33.855Z,9.73
2023-03-24T10:14:32.051Z,10.85
2023-03-24T10:17:30.954Z,10.65
2023-03-24T10:20:44.063Z,10.25
2023-03-24T10:23:48.795Z,9.45
2023-03-24T10:26:30.955Z,9.35
2023-03-24T10:29:48.763Z,8.95
2023-03-24T10:32:41.856Z,8.07
2023-03-24T10:35:33.091Z,9.40
2023-03-24T10:38:32.710Z,9.80
2023-03-24T10:41:22.236Z,9.10
2023-03-24T10:44:12.837Z,11.10
2023-03-24T10:47:03.843Z,12.60
2023-03-24T10:49:52.783Z,8.70
2023-03-24T10:53:07.061Z,12.07
2023-03-24T10:55:51.973Z,11.07
2023-03-24T10:58:51.839Z,13.32
2023-03-24T11:01:38.174Z,13.60
2023-03-24T11:04:29.119Z,12.18
2023-03-24T11:07:25.028Z,13.55
2023-03-24T11:10:24.830Z,15.77
2023-03-24T11:13:09.227Z,16.65
2023-03-24T11:16:06.745Z,15.60
2023-03-24T11:19:07.031Z,14.18
2023-03-24T11:21:56.731Z,11.95
2023-03-24T11:24:43.063Z,12.57
2023-03-24T11:27:31.913Z,12.07
2023-03-24T11:30:20.046Z,12.93
2023-03-24T11:33:09.699Z,13.05
2023-03-24T11:35:59.355Z,14.98
2023-03-24T11:39:19.318Z,14.35
2023-03-24T11:42:11.060Z,15.10
2023-03-24T11:45:00.753Z,15.07
2023-03-24T11:47:50.128Z,9.35
2023-03-24T11:50:46.770Z,5.07
2023-03-24T11:53:59.780Z,5.00
2023-03-24T11:56:59.641Z,3.97
2023-03-24T11:59:53.766Z,4.43
2023-03-24T12:02:51.153Z,4.18
2023-03-24T12:05:51.053Z,4.00
2023-03-24T12:08:38.043Z,4.15
2023-03-24T12:12:08.309Z,4.63
2023-03-24T12:15:24.761Z,3.88
2023-03-24T12:18:43.018Z,4.97
2023-03-24T12:21:31.309Z,4.50
2023-03-24T12:24:28.757Z,4.63
2023-03-24T12:27:11.141Z,4.70
2023-03-24T12:30:20.776Z,5.97
2023-03-24T12:33:12.176Z,4.55
2023-03-24T12:36:12.852Z,5.13
2023-03-24T12:39:17.694Z,4.65
2023-03-24T12:42:18.769Z,5.25
2023-03-24T12:45:19.099Z,5.45
2023-03-24T12:48:28.698Z,4.85
2023-03-24T12:51:32.759Z,5.68
2023-03-24T12:54:37.571Z,6.20
2023-03-24T12:57:32.797Z,5.38
2023-03-24T13:00:18.342Z,6.63
2023-03-24T13:03:11.852Z,6.28
2023-03-24T13:06:16.317Z,6.00
2023-03-24T13:09:42.801Z,7.80
2023-03-24T13:12:36.556Z,9.40
2023-03-24T13:15:26.199Z,8.95
2023-03-24T13:18:20.157Z,10.25
2023-03-24T13:21:25.158Z,9.82
2023-03-24T13:24:21.118Z,9.20
2023-03-24T13:27:19.806Z,10.57
2023-03-24T13:30:28.219Z,12.85
2023-03-24T13:33:30.800Z,11.85
2023-03-24T13:36:21.334Z,11.55
2023-03-24T13:39:15.758Z,14.57
2023-03-24T13:42:00.067Z,14.40
2023-03-24T13:44:58.752Z,16.42
2023-03-24T13:48:06.803Z,15.02
2023-03-24T13:51:03.240Z,15.18
2023-03-24T13:53:51.762Z,15.88
2023-03-24T13:56:47.826Z,13.93
2023-03-24T13:59:37.185Z,14.80
2023-03-24T14:02:39.768Z,15.27
2023-03-24T14:05:31.509Z,15.30
2023-03-24T14:08:25.771Z,13.48
2023-03-24T14:11:09.089Z,14.60
2023-03-24T14:13:57.803Z,15.82
2023-03-24T14:17:16.080Z,13.15
2023-03-24T14:20:09.765Z,12.43
2023-03-24T14:22:55.083Z,12.30
2023-03-24T14:25:46.784Z,11.60
2023-03-24T14:28:41.227Z,11.90
2023-03-24T14:31:37.140Z,14.25
2023-03-24T14:34:28.756Z,16.33
2023-03-24T14:37:18.843Z,21.27
2023-03-24T14:40:18.026Z,24.90
2023-03-24T14:43:21.821Z,26.00
2023-03-24T14:46:12.449Z,28.00
2023-03-24T14:49:04.731Z,26.25
2023-03-24T14:51:51.288Z,23.50
2023-03-24T14:55:00.788Z,23.38
2023-03-24T14:57:47.025Z,26.42
2023-03-24T15:01:06.316Z,22.67
2023-03-24T15:04:06.382Z,24.52
2023-03-24T15:06:56.760Z,22.83
2023-03-24T15:09:43.167Z,23.50
2023-03-24T15:12:32.697Z,18.80
2023-03-24T15:15:33.821Z,19.02
2023-03-24T15:18:28.618Z,17.23
2023-03-24T15:21:37.779Z,17.05
2023-03-24T15:24:29.203Z,16.35
2023-03-24T15:27:16.785Z,17.75
2023-03-24T15:30:07.118Z,17.02
2023-03-24T15:32:53.829Z,18.73
2023-03-24T15:35:43.792Z,18.85
2023-03-24T15:38:46.707Z,21.65
2023-03-24T15:41:36.658Z,21.10
2023-03-24T15:44:35.771Z,21.23
2023-03-24T15:47:31.077Z,21.85
2023-03-24T15:50:13.770Z,21.23
2023-03-24T15:53:14.245Z,20.50
2023-03-24T15:55:56.674Z,15.55
2023-03-24T15:58:57.193Z,19.08
2023-03-24T16:01:45.297Z,21.10
2023-03-24T16:04:39.021Z,20.67
2023-03-24T16:07:39.745Z,21.90
2023-03-24T16:10:35.269Z,25.60
2023-03-24T16:13:28.844Z,27.98
2023-03-24T16:16:23.366Z,28.70
2023-03-24T16:19:06.753Z,29.65
2023-03-24T16:21:55.776Z,27.65
2023-03-24T16:24:38.163Z,28.13
2023-03-24T16:27:26.762Z,25.05
2023-03-24T16:30:10.255Z,25.15
2023-03-24T16:32:58.765Z,25.58
2023-03-24T16:35:42.357Z,24.85
2023-03-24T16:38:31.946Z,21.98
2023-03-24T16:41:21.699Z,21.13
2023-03-24T16:44:04.713Z,18.58
2023-03-24T16:46:48.371Z,18.23
2023-03-24T16:49:39.111Z,17.55
2023-03-24T16:52:27.987Z,18.75
2023-03-24T16:55:10.848Z,17.08
2023-03-24T16:58:00.150Z,17.23
2023-03-24T17:00:44.717Z,16.27
2023-03-24T17:03:39.821Z,16.60
2023-03-24T17:06:23.458Z,16.98
2023-03-24T17:09:13.780Z,17.13
2023-03-24T17:12:05.550Z,17.02
2023-03-24T17:14:54.778Z,18.27
2023-03-24T17:17:37.218Z,19.50
2023-03-24T17:20:26.718Z,18.27
2023-03-24T17:23:15.683Z,20.30
2023-03-24T17:25:57.957Z,20.23
2023-03-24T17:28:47.763Z,18.48
2023-03-24T17:31:36.875Z,22.38
2023-03-24T17:34:22.436Z,23.10
2023-03-24T17:37:12.774Z,23.17
2023-03-24T17:40:02.036Z,24.13
2023-03-24T17:42:46.869Z,25.15
2023-03-24T17:45:36.498Z,28.40
2023-03-24T17:48:19.686Z,30.55
2023-03-24T17:51:07.958Z,33.38
2023-03-24T17:53:52.759Z,31.30
2023-03-24T17:56:35.130Z,30.90
2023-03-24T17:59:23.728Z,28.05
2023-03-24T18:02:13.056Z,29.58
2023-03-24T18:04:56.356Z,27.70
2023-03-24T18:07:42.628Z,27.23
2023-03-24T18:10:32.738Z,23.13
2023-03-24T18:13:22.775Z,20.40
2023-03-24T18:16:17.687Z,17.02
2023-03-24T18:19:10.235Z,15.85
2023-03-24T18:21:52.710Z,13.50
2023-03-24T18:24:35.259Z,12.07
2023-03-24T18:27:23.708Z,10.13
2023-03-24T18:30:14.194Z,8.95
2023-03-24T18:32:56.821Z,8.80
2023-03-24T18:35:39.006Z,8.15
2023-03-24T18:38:29.792Z,7.57
2023-03-24T18:41:19.271Z,7.40
2023-03-24T18:44:03.734Z,6.82
2023-03-24T18:46:46.114Z,6.18
2023-03-24T18:49:34.744Z,5.97
2023-03-24T18:52:19.127Z,5.47
2023-03-24T18:55:09.709Z,5.07
2023-03-24T18:57:52.054Z,5.32
2023-03-24T19:00:40.818Z,5.25
2023-03-24T19:03:31.152Z,4.90
2023-03-24T19:06:16.031Z,5.32
2023-03-24T19:09:06.518Z,5.15
2023-03-24T19:11:48.721Z,5.00
2023-03-24T19:14:31.039Z,5.32
2023-03-24T19:17:19.828Z,4.78
2023-03-24T19:20:11.174Z,6.00
2023-03-24T19:22:53.788Z,5.55
2023-03-24T19:25:36.333Z,5.20
2023-03-24T19:28:25.705Z,5.68
2023-03-24T19:31:10.907Z,6.15
2023-03-24T19:34:01.707Z,6.15
2023-03-24T19:36:47.643Z,6.95
2023-03-24T19:39:38.678Z,8.48
2023-03-24T19:42:21.301Z,9.57
2023-03-24T19:45:10.712Z,10.07
2023-03-24T19:48:00.236Z,10.45
2023-03-24T19:50:41.683Z,11.23
2023-03-24T19:53:33.152Z,11.60
2023-03-24T19:56:15.759Z,10.85
2023-03-24T19:59:04.756Z,10.35
2023-03-24T20:01:47.349Z,10.65
2023-03-24T20:04:36.671Z,10.75
2023-03-24T20:07:20.187Z,8.63
2023-03-24T20:10:08.741Z,7.32
2023-03-24T20:12:51.012Z,6.45
2023-03-24T20:15:39.656Z,4.75
2023-03-24T20:18:28.816Z,3.53
2023-03-24T20:21:20.067Z,3.55
2023-03-24T20:24:02.707Z,2.70
2023-03-24T20:26:46.557Z,2.40
2023-03-24T20:29:36.803Z,2.65
2023-03-24T20:32:19.145Z,2.17
2023-03-24T20:35:07.707Z,2.30
2023-03-24T20:37:50.026Z,2.10
2023-03-24T20:40:38.675Z,2.13
2023-03-24T20:43:28.693Z,1.88
2023-03-24T20:46:19.658Z,1.88
2023-03-24T20:49:02.428Z,1.52
2023-03-24T20:51:51.667Z,1.65
2023-03-24T20:54:40.709Z,1.77
2023-03-24T20:57:29.693Z,1.83
2023-03-24T21:00:21.706Z,1.80
2023-03-24T21:03:04.106Z,2.05
2023-03-24T21:05:52.820Z,2.00
2023-03-24T21:08:35.028Z,1.48
2023-03-24T21:11:24.696Z,1.83
2023-03-24T21:14:07.099Z,2.30
2023-03-24T21:16:55.806Z,1.70
2023-03-24T21:19:44.748Z,1.80
2023-03-24T21:22:27.488Z,1.40
2023-03-24T21:25:16.639Z,1.73
2023-03-24T21:27:59.864Z,1.80
2023-03-24T21:30:48.724Z,1.58
2023-03-24T21:33:31.000Z,4.47
2023-03-24T21:36:20.816Z,8.30
2023-03-24T21:39:17.538Z,7.68
2023-03-24T21:42:10.763Z,6.65
2023-03-24T21:44:53.121Z,6.95
2023-03-24T21:47:42.722Z,7.13
2023-03-24T21:50:33.631Z,8.27
2023-03-24T21:53:22.997Z,10.05
2023-03-24T21:56:12.814Z,12.45
2023-03-24T21:58:55.860Z,12.80
2023-03-24T22:01:44.754Z,12.80
2023-03-24T22:04:33.565Z,14.40
2023-03-24T22:07:23.700Z,13.43
2023-03-24T22:10:17.019Z,15.48
2023-03-24T22:13:00.752Z,17.02
2023-03-24T22:15:49.111Z,18.23
2023-03-24T22:18:34.085Z,18.50
2023-03-24T22:21:21.962Z,21.70
2023-03-24T22:24:04.734Z,24.70
2023-03-24T22:26:52.950Z,28.08
2023-03-24T22:29:36.797Z,23.02
2023-03-24T22:32:24.973Z,20.95
2023-03-24T22:35:09.686Z,23.60
2023-03-24T22:37:58.616Z,24.67
2023-03-24T22:40:54.739Z,25.83
2023-03-24T22:43:44.054Z,22.08
2023-03-24T22:46:26.700Z,23.63
2023-03-24T22:49:15.635Z,24.73
2023-03-24T22:51:58.141Z,25.17
2023-03-24T22:54:46.691Z,23.00
2023-03-24T22:57:29.034Z,23.05
2023-03-24T23:00:17.734Z,22.10
2023-03-24T23:03:06.764Z,21.75
2023-03-24T23:05:57.749Z,21.50
2023-03-24T23:08:41.693Z,22.58
2023-03-24T23:11:24.139Z,21.20
2023-03-24T23:14:13.687Z,22.58
2023-03-24T23:17:02.797Z,20.88
2023-03-24T23:19:46.092Z,20.70
2023-03-24T23:22:34.492Z,19.63
2023-03-24T23:25:17.706Z,22.23
2023-03-24T23:28:00.408Z,21.97
2023-03-24T23:30:49.714Z,21.67
2023-03-24T23:33:31.933Z,21.98
2023-03-24T23:36:22.762Z,21.98
2023-03-24T23:39:11.676Z,18.65
2023-03-24T23:42:06.679Z,20.58
2023-03-24T23:44:48.851Z,21.33
2023-03-24T23:47:37.717Z,18.00
2023-03-24T23:50:29.152Z,20.00
2023-03-24T23:53:11.670Z,19.35
2023-03-24T23:56:05.637Z,19.60
2023-03-24T23:58:49.122Z,21.10
